createdAt,value
2022-12-06T00:01:59.620Z,6.63
2022-12-06T00:04:27.450Z,7.07
2022-12-06T00:06:55.254Z,6.80
2022-12-06T00:09:26.592Z,7.25
2022-12-06T00:11:55.100Z,6.95
2022-12-06T00:14:23.396Z,6.85
2022-12-06T00:16:51.684Z,6.57
2022-12-06T00:19:21.980Z,6.65
2022-12-06T00:21:50.084Z,7.05
2022-12-06T00:24:19.797Z,7.10
2022-12-06T00:26:50.427Z,7.38
2022-12-06T00:29:20.526Z,7.70
2022-12-06T00:31:48.954Z,8.30
2022-12-06T00:34:17.061Z,8.05
2022-12-06T00:36:45.116Z,7.88
2022-12-06T00:39:14.319Z,8.30
2022-12-06T00:41:42.687Z,7.88
2022-12-06T00:44:12.454Z,7.90
2022-12-06T00:46:40.585Z,7.20
2022-12-06T00:49:09.511Z,7.72
2022-12-06T00:51:38.294Z,7.53
2022-12-06T00:54:06.974Z,7.32
2022-12-06T00:56:36.896Z,7.60
2022-12-06T00:59:05.025Z,7.55
2022-12-06T01:01:35.985Z,7.43
2022-12-06T01:04:06.131Z,7.90
2022-12-06T01:06:35.957Z,7.30
2022-12-06T01:09:06.610Z,7.97
2022-12-06T01:11:35.009Z,7.47
2022-12-06T01:14:03.559Z,8.27
2022-12-06T01:16:33.228Z,7.95
2022-12-06T01:19:04.950Z,7.60
2022-12-06T01:21:32.898Z,7.82
2022-12-06T01:24:00.681Z,7.65
2022-12-06T01:26:30.947Z,7.85
2022-12-06T01:28:59.640Z,7.45
2022-12-06T01:31:33.642Z,8.05
2022-12-06T01:34:07.086Z,7.43
2022-12-06T01:36:34.903Z,8.25
2022-12-06T01:39:06.491Z,8.20
2022-12-06T01:41:34.357Z,8.17
2022-12-06T01:44:02.204Z,7.85
2022-12-06T01:46:32.918Z,7.82
2022-12-06T01:49:09.508Z,8.52
2022-12-06T01:51:37.806Z,8.90
2022-12-06T01:54:09.243Z,8.98
2022-12-06T01:56:38.226Z,8.90
2022-12-06T01:59:06.858Z,8.95
2022-12-06T02:01:35.274Z,9.15
2022-12-06T02:04:03.614Z,8.70
2022-12-06T02:06:33.374Z,8.83
2022-12-06T02:09:05.465Z,9.18
2022-12-06T02:11:35.647Z,8.93
2022-12-06T02:14:05.120Z,8.10
2022-12-06T02:16:57.275Z,8.27
2022-12-06T02:19:46.458Z,9.07
2022-12-06T02:22:22.195Z,8.52
2022-12-06T02:25:05.943Z,8.57
2022-12-06T02:27:53.842Z,7.93
2022-12-06T02:30:39.767Z,9.00
2022-12-06T02:33:10.977Z,8.80
2022-12-06T02:35:41.933Z,8.52
2022-12-06T02:38:16.334Z,9.20
2022-12-06T02:40:50.025Z,8.90
2022-12-06T02:43:23.017Z,9.30
2022-12-06T02:45:56.613Z,9.40
2022-12-06T02:48:26.162Z,9.70
2022-12-06T02:50:58.061Z,10.55
2022-12-06T02:53:28.927Z,10.02
2022-12-06T02:55:57.719Z,9.70
2022-12-06T02:58:25.684Z,9.60
2022-12-06T03:00:56.940Z,10.43
2022-12-06T03:03:56.950Z,10.07
2022-12-06T03:06:48.924Z,10.40
2022-12-06T03:09:45.901Z,10.30
2022-12-06T03:12:23.648Z,9.93
2022-12-06T03:15:00.301Z,11.38
2022-12-06T03:17:39.339Z,9.75
2022-12-06T03:20:13.062Z,10.52
2022-12-06T03:22:45.544Z,9.85
2022-12-06T03:25:14.834Z,10.40
2022-12-06T03:27:43.982Z,10.98
2022-12-06T03:30:14.397Z,10.13
2022-12-06T03:32:48.771Z,10.10
2022-12-06T03:35:20.988Z,10.60
2022-12-06T03:37:52.561Z,11.25
2022-12-06T03:40:25.273Z,10.50
2022-12-06T03:42:53.911Z,11.43
2022-12-06T03:45:24.018Z,10.65
2022-12-06T03:47:59.450Z,11.05
2022-12-06T03:50:33.447Z,11.07
2022-12-06T03:53:01.995Z,10.55
2022-12-06T03:55:29.774Z,11.27
2022-12-06T03:57:57.579Z,11.33
2022-12-06T04:00:25.353Z,10.95
2022-12-06T04:02:54.476Z,10.95
2022-12-06T04:05:22.267Z,11.35
2022-12-06T04:07:50.164Z,11.38
2022-12-06T04:10:18.057Z,11.18
2022-12-06T04:13:05.995Z,12.27
2022-12-06T04:15:36.184Z,11.70
2022-12-06T04:18:13.881Z,11.15
2022-12-06T04:21:02.300Z,11.27
2022-12-06T04:23:31.055Z,11.63
2022-12-06T04:25:58.982Z,11.33
2022-12-06T04:28:44.410Z,10.68
2022-12-06T04:31:29.811Z,10.45
2022-12-06T04:34:17.628Z,10.38
2022-12-06T04:37:02.933Z,11.98
2022-12-06T04:39:30.828Z,11.45
2022-12-06T04:42:16.240Z,11.65
2022-12-06T04:44:44.045Z,10.68
2022-12-06T04:47:11.886Z,11.85
2022-12-06T04:49:41.615Z,11.85
2022-12-06T04:52:10.619Z,11.57
2022-12-06T04:54:39.203Z,11.82
2022-12-06T04:57:10.836Z,12.02
2022-12-06T04:59:39.982Z,12.07
2022-12-06T05:02:08.484Z,12.30
2022-12-06T05:04:36.382Z,12.87
2022-12-06T05:07:05.885Z,12.90
2022-12-06T05:09:33.683Z,12.75
2022-12-06T05:12:01.500Z,13.38
2022-12-06T05:14:29.301Z,13.35
2022-12-06T05:16:57.129Z,12.30
2022-12-06T05:19:25.361Z,12.18
2022-12-06T05:21:53.113Z,13.43
2022-12-06T05:24:22.287Z,12.20
2022-12-06T05:26:50.600Z,12.25
2022-12-06T05:29:19.742Z,13.15
2022-12-06T05:31:47.795Z,14.20
2022-12-06T05:34:15.868Z,12.90
2022-12-06T05:36:45.301Z,13.05
2022-12-06T05:39:13.134Z,14.02
2022-12-06T05:41:42.362Z,13.75
2022-12-06T05:44:12.276Z,13.83
2022-12-06T05:46:40.253Z,13.70
2022-12-06T05:49:08.070Z,14.23
2022-12-06T05:51:35.833Z,13.68
2022-12-06T05:54:05.762Z,14.57
2022-12-06T05:56:34.070Z,13.80
2022-12-06T05:59:04.089Z,14.25
2022-12-06T06:01:31.986Z,13.23
2022-12-06T06:03:59.817Z,15.00
2022-12-06T06:06:27.557Z,14.90
2022-12-06T06:08:55.546Z,13.75
2022-12-06T06:11:23.298Z,14.93
2022-12-06T06:13:51.100Z,15.90
2022-12-06T06:16:20.743Z,15.30
2022-12-06T06:18:48.576Z,14.10
2022-12-06T06:21:16.370Z,15.15
2022-12-06T06:23:44.152Z,15.38
2022-12-06T06:26:12.861Z,15.73
2022-12-06T06:28:40.740Z,15.20
2022-12-06T06:31:09.114Z,16.48
2022-12-06T06:33:38.298Z,16.13
2022-12-06T06:36:06.846Z,16.65
2022-12-06T06:38:34.662Z,17.20
2022-12-06T06:41:03.122Z,17.00
2022-12-06T06:43:31.181Z,17.90
2022-12-06T06:46:00.897Z,18.33
2022-12-06T06:48:30.750Z,16.98
2022-12-06T06:51:03.806Z,18.77
2022-12-06T06:53:31.723Z,18.75
2022-12-06T06:55:59.505Z,18.75
2022-12-06T06:58:27.732Z,19.38
2022-12-06T07:00:56.834Z,20.00
2022-12-06T07:03:25.343Z,19.77
2022-12-06T07:05:54.087Z,19.95
2022-12-06T07:08:23.974Z,19.45
2022-12-06T07:10:51.915Z,20.02
2022-12-06T07:13:20.606Z,19.48
2022-12-06T07:15:48.690Z,21.30
2022-12-06T07:18:17.726Z,20.67
2022-12-06T07:20:45.559Z,19.80
2022-12-06T07:23:13.694Z,20.15
2022-12-06T07:25:42.897Z,20.67
2022-12-06T07:28:10.646Z,20.07
2022-12-06T07:30:38.605Z,20.20
2022-12-06T07:33:06.650Z,20.23
2022-12-06T07:36:03.548Z,20.60
2022-12-06T07:38:22.381Z,20.83
2022-12-06T07:41:06.943Z,19.65
2022-12-06T07:43:52.884Z,20.23
2022-12-06T07:46:20.799Z,20.10
2022-12-06T07:48:48.658Z,20.23
2022-12-06T07:51:16.478Z,20.40
2022-12-06T07:53:44.226Z,19.97
2022-12-06T07:56:13.525Z,20.33
2022-12-06T07:58:42.558Z,20.25
2022-12-06T08:01:10.403Z,20.20
2022-12-06T08:03:38.316Z,20.23
2022-12-06T08:06:06.653Z,20.48
2022-12-06T08:08:34.563Z,19.50
2022-12-06T08:11:03.177Z,19.48
2022-12-06T08:13:32.687Z,18.73
2022-12-06T08:16:00.679Z,18.85
2022-12-06T08:18:29.291Z,19.40
2022-12-06T08:20:58.692Z,18.88
2022-12-06T08:23:33.711Z,19.23
2022-12-06T08:26:04.968Z,18.90
2022-12-06T08:28:35.364Z,18.42
2022-12-06T08:31:08.553Z,17.40
2022-12-06T08:33:36.772Z,17.40
2022-12-06T08:36:09.377Z,17.67
2022-12-06T08:38:37.644Z,18.10
2022-12-06T08:41:05.710Z,17.40
2022-12-06T08:43:34.845Z,16.70
2022-12-06T08:46:02.678Z,16.42
2022-12-06T08:48:30.463Z,15.80
2022-12-06T08:51:03.153Z,16.77
2022-12-06T08:53:30.913Z,16.90
2022-12-06T08:56:02.879Z,16.33
2022-12-06T08:58:31.141Z,16.70
2022-12-06T09:01:00.260Z,16.05
2022-12-06T09:03:28.037Z,16.73
2022-12-06T09:05:55.857Z,17.48
2022-12-06T09:08:23.844Z,15.05
2022-12-06T09:10:51.725Z,15.98
2022-12-06T09:13:19.495Z,15.68
2022-12-06T09:15:47.366Z,15.07
2022-12-06T09:18:16.552Z,15.70
2022-12-06T09:20:44.417Z,15.68
2022-12-06T09:23:12.424Z,15.15
2022-12-06T09:25:42.729Z,15.30
2022-12-06T09:28:12.148Z,15.20
2022-12-06T09:30:39.994Z,14.77
2022-12-06T09:33:07.763Z,15.20
2022-12-06T09:35:37.704Z,15.13
2022-12-06T09:38:06.251Z,14.77
2022-12-06T09:40:41.374Z,14.15
2022-12-06T09:43:21.817Z,13.90
2022-12-06T09:46:02.546Z,13.57
2022-12-06T09:48:57.031Z,13.13
2022-12-06T09:51:38.761Z,12.38
2022-12-06T09:54:20.192Z,12.15
2022-12-06T09:56:52.876Z,12.23
2022-12-06T09:59:30.395Z,12.25
2022-12-06T10:02:15.044Z,12.07
2022-12-06T10:05:01.226Z,11.68
2022-12-06T10:07:42.418Z,10.52
2022-12-06T10:10:22.355Z,10.03
2022-12-06T10:13:04.140Z,10.35
2022-12-06T10:15:45.060Z,9.77
2022-12-06T10:18:33.667Z,9.73
2022-12-06T10:21:12.223Z,9.40
2022-12-06T10:24:01.437Z,9.70
2022-12-06T10:26:40.356Z,9.63
2022-12-06T10:29:23.142Z,9.32
2022-12-06T10:31:58.696Z,9.95
2022-12-06T10:34:45.720Z,9.63
2022-12-06T10:37:32.017Z,9.57
2022-12-06T10:40:07.908Z,9.20
2022-12-06T10:42:41.221Z,9.23
2022-12-06T10:45:37.724Z,9.18
2022-12-06T10:48:15.909Z,9.60
2022-12-06T10:50:51.553Z,9.33
2022-12-06T10:53:23.606Z,9.20
2022-12-06T10:55:57.542Z,8.80
2022-12-06T10:58:33.329Z,9.27
2022-12-06T11:01:04.277Z,9.15
2022-12-06T11:03:35.943Z,8.77
2022-12-06T11:06:09.354Z,8.63
2022-12-06T11:08:41.049Z,9.27
2022-12-06T11:11:17.274Z,9.00
2022-12-06T11:13:48.749Z,8.93
2022-12-06T11:16:21.877Z,8.10
2022-12-06T11:18:50.495Z,8.80
2022-12-06T11:21:29.073Z,8.05
2022-12-06T11:24:03.652Z,8.38
2022-12-06T11:26:38.931Z,7.65
2022-12-06T11:29:12.221Z,7.97
2022-12-06T11:31:45.379Z,8.37
2022-12-06T11:34:17.674Z,7.72
2022-12-06T11:36:46.811Z,8.45
2022-12-06T11:39:15.978Z,7.80
2022-12-06T11:41:48.935Z,7.70
2022-12-06T11:44:20.297Z,7.95
2022-12-06T11:46:52.779Z,7.68
2022-12-06T11:49:28.611Z,7.75
2022-12-06T11:51:58.588Z,8.40
2022-12-06T11:54:32.730Z,7.93
2022-12-06T11:57:17.987Z,8.05
2022-12-06T12:00:12.971Z,6.63
2022-12-06T12:02:42.249Z,6.07
2022-12-06T12:05:12.418Z,6.65
2022-12-06T12:07:42.353Z,6.47
2022-12-06T12:10:44.192Z,6.43
2022-12-06T12:13:39.590Z,6.32
2022-12-06T12:16:15.037Z,6.22
2022-12-06T12:18:50.829Z,6.65
2022-12-06T12:21:37.817Z,6.28
2022-12-06T12:24:07.692Z,6.25
2022-12-06T12:26:38.818Z,6.80
2022-12-06T12:29:16.441Z,6.30
2022-12-06T12:31:52.977Z,6.57
2022-12-06T12:34:22.278Z,6.80
2022-12-06T12:36:52.620Z,6.47
2022-12-06T12:39:32.354Z,6.60
2022-12-06T12:42:00.358Z,5.85
2022-12-06T12:44:40.145Z,5.20
2022-12-06T12:47:18.756Z,5.05
2022-12-06T12:50:01.761Z,5.57
2022-12-06T12:52:31.957Z,5.65
2022-12-06T12:55:02.768Z,6.05
2022-12-06T12:57:30.950Z,5.00
2022-12-06T13:00:00.844Z,5.60
2022-12-06T13:02:31.801Z,5.00
2022-12-06T13:07:53.917Z,5.72
2022-12-06T13:10:26.993Z,5.13
2022-12-06T13:12:57.265Z,5.30
2022-12-06T13:15:33.295Z,5.10
2022-12-06T13:18:06.593Z,4.97
2022-12-06T13:20:36.361Z,4.90
2022-12-06T13:23:08.846Z,5.30
2022-12-06T13:25:37.922Z,5.70
2022-12-06T13:28:13.617Z,5.60
2022-12-06T13:30:44.735Z,5.10
2022-12-06T13:33:21.333Z,5.43
2022-12-06T13:35:58.250Z,5.10
2022-12-06T13:38:31.296Z,5.25
2022-12-06T13:40:59.708Z,5.05
2022-12-06T13:44:00.420Z,5.60
2022-12-06T13:46:32.183Z,5.88
2022-12-06T13:49:06.038Z,4.88
2022-12-06T13:51:47.942Z,5.70
2022-12-06T13:54:36.849Z,5.13
2022-12-06T13:57:29.544Z,5.20
2022-12-06T13:59:58.159Z,5.10
2022-12-06T14:02:55.163Z,4.72
2022-12-06T14:06:09.015Z,5.10
2022-12-06T14:08:41.919Z,5.20
2022-12-06T14:11:17.220Z,4.83
2022-12-06T14:13:46.864Z,5.03
2022-12-06T14:16:22.513Z,4.53
2022-12-06T14:18:52.222Z,4.57
2022-12-06T14:21:27.228Z,4.72
2022-12-06T14:23:55.008Z,4.50
2022-12-06T14:26:25.423Z,4.63
2022-12-06T14:28:55.340Z,4.80
2022-12-06T14:31:27.845Z,5.15
2022-12-06T14:33:57.790Z,4.60
2022-12-06T14:36:29.146Z,4.72
2022-12-06T14:39:02.640Z,4.63
2022-12-06T14:41:54.098Z,4.90
2022-12-06T14:44:27.984Z,5.00
2022-12-06T14:46:56.322Z,5.03
2022-12-06T14:49:45.184Z,5.47
2022-12-06T14:52:22.509Z,4.70
2022-12-06T14:54:52.029Z,5.07
2022-12-06T14:57:30.489Z,4.97
2022-12-06T15:00:27.164Z,4.97
2022-12-06T15:03:06.982Z,5.15
2022-12-06T15:05:37.793Z,5.35
2022-12-06T15:08:33.491Z,5.00
2022-12-06T15:11:03.611Z,4.70
2022-12-06T15:13:30.647Z,4.82
2022-12-06T15:16:16.431Z,4.40
2022-12-06T15:18:55.509Z,4.63
2022-12-06T15:21:24.922Z,4.55
2022-12-06T15:23:54.178Z,4.88
2022-12-06T15:26:24.486Z,4.93
2022-12-06T15:28:52.741Z,4.43
2022-12-06T15:31:23.095Z,4.43
2022-12-06T15:33:50.945Z,4.50
2022-12-06T15:36:20.610Z,4.97
2022-12-06T15:38:50.100Z,4.50
2022-12-06T15:41:19.559Z,4.80
2022-12-06T15:43:47.814Z,4.32
2022-12-06T15:46:20.066Z,4.53
2022-12-06T15:48:48.408Z,4.22
2022-12-06T15:51:20.936Z,4.53
2022-12-06T15:53:51.520Z,4.65
2022-12-06T15:56:21.117Z,5.27
2022-12-06T15:58:49.414Z,5.25
2022-12-06T16:01:19.990Z,5.15
2022-12-06T16:03:48.169Z,5.77
2022-12-06T16:06:17.701Z,5.80
2022-12-06T16:08:46.339Z,5.25
2022-12-06T16:11:18.571Z,5.20
2022-12-06T16:13:46.616Z,5.40
2022-12-06T16:16:16.276Z,5.95
2022-12-06T16:18:44.736Z,6.45
2022-12-06T16:21:20.737Z,6.50
2022-12-06T16:24:12.919Z,6.40
2022-12-06T16:26:44.768Z,6.75
2022-12-06T16:29:15.980Z,7.03
2022-12-06T16:31:43.938Z,6.53
2022-12-06T16:34:11.981Z,6.65
2022-12-06T16:36:55.883Z,7.18
2022-12-06T16:39:24.097Z,7.00
2022-12-06T16:41:53.272Z,6.70
2022-12-06T16:44:21.171Z,7.18
2022-12-06T16:46:49.045Z,7.13
2022-12-06T16:49:45.282Z,7.10
2022-12-06T16:52:07.718Z,7.70
2022-12-06T16:54:35.731Z,7.73
2022-12-06T16:57:04.945Z,8.00
2022-12-06T16:59:32.717Z,8.30
2022-12-06T17:02:01.519Z,7.82
2022-12-06T17:04:31.439Z,7.43
2022-12-06T17:06:59.233Z,7.25
2022-12-06T17:09:27.008Z,8.30
2022-12-06T17:12:06.062Z,8.10
2022-12-06T17:14:35.991Z,8.75
2022-12-06T17:17:04.374Z,8.20
2022-12-06T17:19:33.546Z,8.18
2022-12-06T17:22:02.110Z,8.47
2022-12-06T17:24:29.984Z,8.10
2022-12-06T17:26:59.018Z,8.30
2022-12-06T17:29:27.379Z,8.30
2022-12-06T17:31:57.114Z,8.33
2022-12-06T17:34:25.650Z,7.70
2022-12-06T17:36:53.982Z,8.10
2022-12-06T17:39:22.385Z,8.27
2022-12-06T17:42:07.736Z,8.52
2022-12-06T17:44:35.554Z,8.48
2022-12-06T17:47:05.253Z,8.25
2022-12-06T17:49:35.797Z,8.63
2022-12-06T17:52:03.649Z,8.13
2022-12-06T17:54:31.457Z,8.23
2022-12-06T17:56:59.354Z,9.27
2022-12-06T17:59:30.172Z,9.30
2022-12-06T18:02:16.431Z,8.45
2022-12-06T18:04:47.271Z,9.63
2022-12-06T18:07:16.071Z,9.15
2022-12-06T18:09:43.876Z,8.57
2022-12-06T18:12:12.990Z,9.38
2022-12-06T18:14:40.845Z,10.00
2022-12-06T18:17:08.731Z,10.02
2022-12-06T18:19:36.680Z,9.40
2022-12-06T18:22:05.847Z,9.85
2022-12-06T18:24:35.930Z,10.05
2022-12-06T18:27:04.699Z,9.83
2022-12-06T18:29:32.775Z,9.43
2022-12-06T18:32:00.690Z,9.57
2022-12-06T18:34:28.561Z,9.35
2022-12-06T18:36:56.506Z,9.35
2022-12-06T18:39:25.825Z,8.85
2022-12-06T18:41:54.533Z,9.30
2022-12-06T18:44:22.686Z,9.35
2022-12-06T18:46:50.526Z,9.95
2022-12-06T18:49:18.503Z,10.45
2022-12-06T18:51:46.321Z,9.85
2022-12-06T18:54:14.633Z,11.15
2022-12-06T18:56:43.818Z,9.73
2022-12-06T18:59:12.734Z,9.90
2022-12-06T19:01:41.759Z,9.90
2022-12-06T19:04:14.670Z,9.38
2022-12-06T19:06:44.448Z,10.10
2022-12-06T19:09:14.888Z,12.10
2022-12-06T19:11:45.613Z,10.70
2022-12-06T19:14:14.128Z,12.00
2022-12-06T19:16:43.747Z,12.02
2022-12-06T19:19:16.571Z,13.82
2022-12-06T19:21:46.540Z,11.48
2022-12-06T19:24:16.611Z,10.98
2022-12-06T19:26:45.925Z,10.63
2022-12-06T19:29:16.246Z,10.82
2022-12-06T19:31:44.644Z,11.35
2022-12-06T19:34:16.428Z,11.23
2022-12-06T19:36:45.141Z,10.88
2022-12-06T19:39:13.706Z,12.35
2022-12-06T19:41:55.868Z,11.77
2022-12-06T19:44:25.175Z,11.18
2022-12-06T19:46:53.059Z,11.93
2022-12-06T19:49:23.161Z,11.90
2022-12-06T19:51:51.567Z,12.00
2022-12-06T19:54:22.082Z,11.03
2022-12-06T19:56:53.016Z,11.98
2022-12-06T19:59:21.161Z,11.60
2022-12-06T20:01:50.778Z,11.60
2022-12-06T20:04:21.057Z,12.10
2022-12-06T20:06:49.097Z,11.82
2022-12-06T20:09:17.486Z,12.27
2022-12-06T20:12:03.875Z,11.85
2022-12-06T20:14:36.298Z,11.97
2022-12-06T20:17:07.352Z,12.30
2022-12-06T20:19:35.264Z,13.38
2022-12-06T20:22:03.066Z,12.13
2022-12-06T20:24:31.099Z,13.03
2022-12-06T20:26:59.336Z,13.50
2022-12-06T20:29:29.757Z,13.65
2022-12-06T20:31:59.452Z,13.77
2022-12-06T20:34:34.239Z,13.80
2022-12-06T20:37:04.045Z,14.32
2022-12-06T20:39:34.931Z,13.80
2022-12-06T20:42:03.895Z,14.00
2022-12-06T20:44:31.814Z,15.18
2022-12-06T20:47:00.130Z,14.80
2022-12-06T20:49:29.493Z,14.65
2022-12-06T20:51:57.958Z,14.77
2022-12-06T20:54:25.762Z,14.98
2022-12-06T20:56:53.647Z,13.75
2022-12-06T20:59:21.761Z,14.90
2022-12-06T21:01:49.695Z,14.88
2022-12-06T21:04:18.049Z,15.43
2022-12-06T21:06:47.196Z,14.63
2022-12-06T21:09:15.004Z,15.70
2022-12-06T21:11:43.657Z,15.30
2022-12-06T21:14:13.799Z,15.52
2022-12-06T21:16:43.269Z,16.02
2022-12-06T21:19:14.757Z,15.32
2022-12-06T21:21:46.362Z,16.13
2022-12-06T21:24:17.478Z,16.15
2022-12-06T21:26:45.486Z,15.63
2022-12-06T21:29:16.922Z,16.45
2022-12-06T21:31:44.841Z,16.73
2022-12-06T21:34:12.947Z,17.07
2022-12-06T21:36:40.808Z,17.30
2022-12-06T21:39:09.031Z,17.53
2022-12-06T21:41:38.560Z,17.80
2022-12-06T21:44:06.649Z,17.63
2022-12-06T21:46:34.735Z,17.98
2022-12-06T21:49:02.710Z,17.30
2022-12-06T21:51:32.885Z,17.85
2022-12-06T21:54:01.504Z,18.48
2022-12-06T21:56:31.014Z,18.25
2022-12-06T21:59:01.417Z,18.27
2022-12-06T22:01:31.020Z,18.63
2022-12-06T22:04:00.929Z,18.70
2022-12-06T22:06:28.866Z,18.45
2022-12-06T22:08:58.812Z,17.63
2022-12-06T22:11:27.663Z,16.92
2022-12-06T22:13:55.553Z,18.17
2022-12-06T22:16:24.763Z,17.07
2022-12-06T22:18:55.197Z,15.63
2022-12-06T22:21:25.653Z,17.30
2022-12-06T22:23:53.828Z,17.13
2022-12-06T22:26:23.656Z,16.23
2022-12-06T22:28:52.112Z,16.13
2022-12-06T22:31:22.058Z,15.73
2022-12-06T22:33:52.385Z,15.40
2022-12-06T22:36:21.693Z,15.52
2022-12-06T22:38:50.336Z,15.85
2022-12-06T22:41:18.801Z,15.77
2022-12-06T22:43:46.881Z,15.13
2022-12-06T22:46:16.576Z,15.73
2022-12-06T22:48:44.977Z,14.70
2022-12-06T22:51:16.113Z,14.80
2022-12-06T22:53:46.538Z,15.17
2022-12-06T22:56:15.444Z,14.88
2022-12-06T22:58:43.205Z,14.65
2022-12-06T23:01:16.545Z,14.38
2022-12-06T23:03:45.481Z,14.35
2022-12-06T23:06:16.566Z,14.40
2022-12-06T23:08:44.863Z,14.50
2022-12-06T23:11:14.620Z,14.00
2022-12-06T23:13:43.983Z,14.67
2022-12-06T23:16:13.942Z,14.40
2022-12-06T23:18:41.978Z,13.88
2022-12-06T23:21:13.253Z,14.47
2022-12-06T23:23:45.609Z,14.63
2022-12-06T23:26:16.210Z,14.55
2022-12-06T23:28:46.302Z,14.77
2022-12-06T23:31:17.377Z,14.65
2022-12-06T23:36:14.827Z,14.70
2022-12-06T23:38:44.222Z,15.38
2022-12-06T23:41:14.391Z,14.93
2022-12-06T23:43:43.220Z,14.50
2022-12-06T23:46:13.922Z,14.57
2022-12-06T23:48:42.172Z,15.25
2022-12-06T23:51:13.066Z,15.20
2022-12-06T23:53:41.742Z,14.98
2022-12-06T23:56:12.969Z,14.07
2022-12-06T23:58:41.175Z,14.35
